sensor_id;sensor_type;location;lat;lon;timestamp;pressure;altitude;pressure_sealevel;temperature;humidity
70506;BME280;58032;49.820;6.274;2023-04-08T00:01:52;98065.22;;;5.21;100.00
70506;BME280;58032;49.820;6.274;2023-04-08T00:04:19;98064.47;;;5.17;100.00
70506;BME280;58032;49.820;6.274;2023-04-08T00:06:46;98064.88;;;5.16;100.00
70506;BME280;58032;49.820;6.274;2023-04-08T00:09:13;98068.84;;;5.18;100.00
70506;BME280;58032;49.820;6.274;2023-04-08T00:11:42;98064.50;;;5.14;100.00
70506;BME280;58032;49.820;6.274;2023-04-08T00:14:09;98069.72;;;5.08;100.00
70506;BME280;58032;49.820;6.274;2023-04-08T00:16:36;98066.97;;;5.04;100.00
70506;BME280;58032;49.820;6.274;2023-04-08T00:19:03;98067.78;;;5.05;100.00
70506;BME280;58032;49.820;6.274;2023-04-08T00:21:34;98065.34;;;5.07;100.00
70506;BME280;58032;49.820;6.274;2023-04-08T00:24:02;98067.75;;;5.09;100.00
70506;BME280;58032;49.820;6.274;2023-04-08T00:26:31;98066.16;;;5.07;100.00
70506;BME280;58032;49.820;6.274;2023-04-08T00:28:58;98073.34;;;5.05;100.00
70506;BME280;58032;49.820;6.274;2023-04-08T00:31:25;98074.16;;;5.02;100.00
70506;BME280;58032;49.820;6.274;2023-04-08T00:33:52;98075.31;;;5.08;100.00
70506;BME280;58032;49.820;6.274;2023-04-08T00:36:19;98077.34;;;5.04;100.00
70506;BME280;58032;49.820;6.274;2023-04-08T00:38:46;98078.09;;;5.08;100.00
70506;BME280;58032;49.820;6.274;2023-04-08T00:41:13;98070.13;;;5.06;100.00
70506;BME280;58032;49.820;6.274;2023-04-08T00:43:40;98076.50;;;5.07;100.00
70506;BME280;58032;49.820;6.274;2023-04-08T00:46:08;98074.91;;;5.06;100.00
70506;BME280;58032;49.820;6.274;2023-04-08T00:48:35;98069.75;;;5.04;100.00
70506;BME280;58032;49.820;6.274;2023-04-08T00:51:02;98067.78;;;5.05;100.00
70506;BME280;58032;49.820;6.274;2023-04-08T00:53:30;98071.41;;;4.98;100.00
70506;BME280;58032;49.820;6.274;2023-04-08T00:55:57;98064.16;;;5.04;100.00
70506;BME280;58032;49.820;6.274;2023-04-08T00:58:26;98066.97;;;5.01;100.00
70506;BME280;58032;49.820;6.274;2023-04-08T01:00:59;98073.34;;;5.05;100.00
70506;BME280;58032;49.820;6.274;2023-04-08T01:03:38;98076.94;;;5.02;100.00
70506;BME280;58032;49.820;6.274;2023-04-08T01:06:14;98078.53;;;5.03;100.00
70506;BME280;58032;49.820;6.274;2023-04-08T01:08:43;98072.97;;;5.03;100.00
70506;BME280;58032;49.820;6.274;2023-04-08T01:11:12;98070.97;;;5.00;100.00
70506;BME280;58032;49.820;6.274;2023-04-08T01:13:41;98069.38;;;4.99;100.00
70506;BME280;58032;49.820;6.274;2023-04-08T01:16:12;98074.19;;;4.98;100.00
70506;BME280;58032;49.820;6.274;2023-04-08T01:18:41;98073.00;;;4.96;100.00
70506;BME280;58032;49.820;6.274;2023-04-08T01:21:10;98071.81;;;4.97;100.00
70506;BME280;58032;49.820;6.274;2023-04-08T01:26:22;98069.06;;;4.89;100.00
70506;BME280;58032;49.820;6.274;2023-04-08T01:28:58;98080.28;;;4.82;100.00
70506;BME280;58032;49.820;6.274;2023-04-08T01:31:26;98076.25;;;4.83;100.00
70506;BME280;58032;49.820;6.274;2023-04-08T01:33:54;98078.31;;;4.79;100.00
70506;BME280;58032;49.820;6.274;2023-04-08T01:36:23;98083.91;;;4.75;100.00
70506;BME280;58032;49.820;6.274;2023-04-08T01:38:51;98089.47;;;4.75;100.00
70506;BME280;58032;49.820;6.274;2023-04-08T01:41:18;98081.13;;;4.75;100.00
70506;BME280;58032;49.820;6.274;2023-04-08T01:43:47;98079.53;;;4.74;100.00
70506;BME280;58032;49.820;6.274;2023-04-08T01:46:15;98084.72;;;4.69;100.00
70506;BME280;58032;49.820;6.274;2023-04-08T01:48:43;98084.84;;;4.47;100.00
70506;BME280;58032;49.820;6.274;2023-04-08T01:51:12;98084.09;;;4.43;100.00
70506;BME280;58032;49.820;6.274;2023-04-08T01:53:40;98090.47;;;4.40;100.00
70506;BME280;58032;49.820;6.274;2023-04-08T01:56:11;98081.66;;;4.45;100.00
70506;BME280;58032;49.820;6.274;2023-04-08T01:58:50;98084.06;;;4.50;100.00
70506;BME280;58032;49.820;6.274;2023-04-08T02:01:20;98093.63;;;4.49;100.00
70506;BME280;58032;49.820;6.274;2023-04-08T02:03:50;98098.41;;;4.45;100.00
70506;BME280;58032;49.820;6.274;2023-04-08T02:06:19;98094.78;;;4.55;100.00
70506;BME280;58032;49.820;6.274;2023-04-08T02:08:46;98099.19;;;4.49;100.00
70506;BME280;58032;49.820;6.274;2023-04-08T02:11:13;98099.16;;;4.53;100.00
70506;BME280;58032;49.820;6.274;2023-04-08T02:13:40;98099.16;;;4.53;100.00
70506;BME280;58032;49.820;6.274;2023-04-08T02:19:10;98092.81;;;4.45;100.00
70506;BME280;58032;49.820;6.274;2023-04-08T02:21:50;98100.81;;;4.43;100.00
70506;BME280;58032;49.820;6.274;2023-04-08T02:24:19;98101.63;;;4.36;100.00
70506;BME280;58032;49.820;6.274;2023-04-08T02:26:48;98101.22;;;4.34;100.00
70506;BME280;58032;49.820;6.274;2023-04-08T02:29:17;98104.44;;;4.33;100.00
70506;BME280;58032;49.820;6.274;2023-04-08T02:31:45;98098.84;;;4.36;100.00
70506;BME280;58032;49.820;6.274;2023-04-08T02:34:14;98104.84;;;4.35;100.00
70506;BME280;58032;49.820;6.274;2023-04-08T02:36:42;98112.00;;;4.39;100.00
70506;BME280;58032;49.820;6.274;2023-04-08T02:39:11;98105.59;;;4.39;100.00
70506;BME280;58032;49.820;6.274;2023-04-08T02:41:38;98099.63;;;4.37;100.00
70506;BME280;58032;49.820;6.274;2023-04-08T02:44:05;98097.66;;;4.37;100.00
70506;BME280;58032;49.820;6.274;2023-04-08T02:46:32;98110.78;;;4.33;100.00
70506;BME280;58032;49.820;6.274;2023-04-08T02:49:01;98108.03;;;4.30;100.00
70506;BME280;58032;49.820;6.274;2023-04-08T02:51:29;98108.88;;;4.19;100.00
70506;BME280;58032;49.820;6.274;2023-04-08T02:53:57;98104.91;;;4.13;100.00
70506;BME280;58032;49.820;6.274;2023-04-08T02:56:24;98107.31;;;4.11;100.00
70506;BME280;58032;49.820;6.274;2023-04-08T02:58:51;98110.50;;;4.06;100.00
70506;BME280;58032;49.820;6.274;2023-04-08T03:01:18;98112.09;;;4.00;100.00
70506;BME280;58032;49.820;6.274;2023-04-08T03:03:45;98106.94;;;3.94;100.00
70506;BME280;58032;49.820;6.274;2023-04-08T03:06:12;98113.34;;;3.84;100.00
70506;BME280;58032;49.820;6.274;2023-04-08T03:08:39;98118.91;;;3.84;100.00
70506;BME280;58032;49.820;6.274;2023-04-08T03:11:05;98113.34;;;3.77;100.00
70506;BME280;58032;49.820;6.274;2023-04-08T03:13:32;98110.56;;;3.77;100.00
70506;BME280;58032;49.820;6.274;2023-04-08T03:16:01;98113.75;;;3.75;100.00
70506;BME280;58032;49.820;6.274;2023-04-08T03:18:27;98111.38;;;3.74;100.00
70506;BME280;58032;49.820;6.274;2023-04-08T03:20:54;98110.56;;;3.73;100.00
70506;BME280;58032;49.820;6.274;2023-04-08T03:23:21;98117.75;;;3.71;100.00
70506;BME280;58032;49.820;6.274;2023-04-08T03:25:48;98116.56;;;3.64;100.00
70506;BME280;58032;49.820;6.274;2023-04-08T03:28:15;98112.19;;;3.63;100.00
70506;BME280;58032;49.820;6.274;2023-04-08T03:30:42;98115.38;;;3.62;100.00
70506;BME280;58032;49.820;6.274;2023-04-08T03:33:09;98119.75;;;3.59;100.00
70506;BME280;58032;49.820;6.274;2023-04-08T03:35:36;98124.53;;;3.48;100.00
70506;BME280;58032;49.820;6.274;2023-04-08T03:38:04;98118.56;;;3.35;100.00
70506;BME280;58032;49.820;6.274;2023-04-08T03:40:31;98119.75;;;3.27;100.00
70506;BME280;58032;49.820;6.274;2023-04-08T03:42:58;98124.94;;;3.25;100.00
70506;BME280;58032;49.820;6.274;2023-04-08T03:45:25;98129.28;;;3.22;100.00
70506;BME280;58032;49.820;6.274;2023-04-08T03:47:52;98124.13;;;3.10;100.00
70506;BME280;58032;49.820;6.274;2023-04-08T03:50:19;98120.91;;;2.97;100.00
70506;BME280;58032;49.820;6.274;2023-04-08T03:52:45;98127.28;;;2.94;100.00
70506;BME280;58032;49.820;6.274;2023-04-08T03:55:12;98123.31;;;2.98;100.00
70506;BME280;58032;49.820;6.274;2023-04-08T03:57:39;98131.69;;;3.02;100.00
70506;BME280;58032;49.820;6.274;2023-04-08T04:00:11;98131.28;;;3.14;100.00
70506;BME280;58032;49.820;6.274;2023-04-08T04:02:39;98131.28;;;3.18;100.00
70506;BME280;58032;49.820;6.274;2023-04-08T04:05:06;98133.28;;;3.14;100.00
70506;BME280;58032;49.820;6.274;2023-04-08T04:07:33;98126.47;;;3.00;100.00
70506;BME280;58032;49.820;6.274;2023-04-08T04:10:00;98130.44;;;2.92;100.00
70506;BME280;58032;49.820;6.274;2023-04-08T04:12:27;98122.50;;;2.91;100.00
70506;BME280;58032;49.820;6.274;2023-04-08T04:14:53;98127.66;;;2.92;100.00
70506;BME280;58032;49.820;6.274;2023-04-08T04:17:21;98131.25;;;2.96;100.00
70506;BME280;58032;49.820;6.274;2023-04-08T04:19:48;98127.66;;;2.99;100.00
70506;BME280;58032;49.820;6.274;2023-04-08T04:22:15;98132.03;;;2.97;100.00
70506;BME280;58032;49.820;6.274;2023-04-08T04:24:45;98124.09;;;2.95;100.00
70506;BME280;58032;49.820;6.274;2023-04-08T04:27:13;98128.84;;;2.91;100.00
70506;BME280;58032;49.820;6.274;2023-04-08T04:29:40;98128.84;;;2.91;100.00
70506;BME280;58032;49.820;6.274;2023-04-08T04:32:07;98133.22;;;2.96;100.00
70506;BME280;58032;49.820;6.274;2023-04-08T04:34:34;98146.38;;;3.03;100.00
70506;BME280;58032;49.820;6.274;2023-04-08T04:37:01;98133.25;;;3.03;100.00
70506;BME280;58032;49.820;6.274;2023-04-08T04:39:28;98139.97;;;2.91;100.00
70506;BME280;58032;49.820;6.274;2023-04-08T04:41:55;98143.97;;;2.87;100.00
70506;BME280;58032;49.820;6.274;2023-04-08T04:44:21;98145.53;;;2.88;100.00
70506;BME280;58032;49.820;6.274;2023-04-08T04:46:48;98140.38;;;2.82;100.00
70506;BME280;58032;49.820;6.274;2023-04-08T04:49:15;98142.38;;;2.93;100.00
70506;BME280;58032;49.820;6.274;2023-04-08T04:51:46;98147.13;;;2.92;100.00
70506;BME280;58032;49.820;6.274;2023-04-08T04:54:13;98146.75;;;2.83;100.00
70506;BME280;58032;49.820;6.274;2023-04-08T04:56:39;98146.75;;;2.87;100.00
70506;BME280;58032;49.820;6.274;2023-04-08T04:59:07;98149.84;;;2.63;100.00
70506;BME280;58032;49.820;6.274;2023-04-08T05:01:34;98160.50;;;2.47;100.00
70506;BME280;58032;49.820;6.274;2023-04-08T05:04:01;98158.84;;;2.31;100.00
70506;BME280;58032;49.820;6.274;2023-04-08T05:06:28;98162.75;;;2.19;100.00
70506;BME280;58032;49.820;6.274;2023-04-08T05:08:55;98160.75;;;2.13;100.00
70506;BME280;58032;49.820;6.274;2023-04-08T05:11:22;98163.47;;;2.02;100.00
70506;BME280;58032;49.820;6.274;2023-04-08T05:13:48;98168.22;;;2.01;100.00
70506;BME280;58032;49.820;6.274;2023-04-08T05:16:15;98165.84;;;2.03;100.00
70506;BME280;58032;49.820;6.274;2023-04-08T05:18:42;98180.91;;;1.99;100.00
70506;BME280;58032;49.820;6.274;2023-04-08T05:21:09;98182.09;;;2.01;100.00
70506;BME280;58032;49.820;6.274;2023-04-08T05:23:36;98175.38;;;2.02;100.00
70506;BME280;58032;49.820;6.274;2023-04-08T05:26:06;98184.09;;;2.01;100.00
70506;BME280;58032;49.820;6.274;2023-04-08T05:28:34;98178.53;;;2.01;100.00
70506;BME280;58032;49.820;6.274;2023-04-08T05:31:01;98176.97;;;2.03;100.00
70506;BME280;58032;49.820;6.274;2023-04-08T05:33:28;98176.19;;;2.07;100.00
70506;BME280;58032;49.820;6.274;2023-04-08T05:35:55;98180.19;;;2.13;100.00
70506;BME280;58032;49.820;6.274;2023-04-08T05:38:22;98181.06;;;2.31;100.00
70506;BME280;58032;49.820;6.274;2023-04-08T05:40:49;98176.41;;;2.46;100.00
70506;BME280;58032;49.820;6.274;2023-04-08T05:43:16;98186.78;;;2.60;100.00
70506;BME280;58032;49.820;6.274;2023-04-08T05:45:42;98185.94;;;2.49;100.00
70506;BME280;58032;49.820;6.274;2023-04-08T05:48:09;98181.97;;;2.50;100.00
70506;BME280;58032;49.820;6.274;2023-04-08T05:50:36;98187.19;;;2.69;100.00
70506;BME280;58032;49.820;6.274;2023-04-08T05:53:03;98191.59;;;2.78;100.00
70506;BME280;58032;49.820;6.274;2023-04-08T05:55:30;98192.81;;;2.91;100.00
70506;BME280;58032;49.820;6.274;2023-04-08T05:57:57;98198.00;;;2.89;100.00
70506;BME280;58032;49.820;6.274;2023-04-08T06:00:24;98197.22;;;2.96;100.00
70506;BME280;58032;49.820;6.274;2023-04-08T06:02:51;98188.94;;;3.10;100.00
70506;BME280;58032;49.820;6.274;2023-04-08T06:05:17;98196.91;;;3.33;100.00
70506;BME280;58032;49.820;6.274;2023-04-08T06:07:44;98191.34;;;3.55;100.00
70506;BME280;58032;49.820;6.274;2023-04-08T06:10:11;98192.53;;;3.69;100.00
70506;BME280;58032;49.820;6.274;2023-04-08T06:12:38;98195.72;;;3.60;100.00
70506;BME280;58032;49.820;6.274;2023-04-08T06:15:06;98201.28;;;3.63;100.00
70506;BME280;58032;49.820;6.274;2023-04-08T06:17:37;98202.47;;;3.77;100.00
70506;BME280;58032;49.820;6.274;2023-04-08T06:20:05;98204.06;;;3.85;100.00
70506;BME280;58032;49.820;6.274;2023-04-08T06:22:32;98212.41;;;3.96;100.00
70506;BME280;58032;49.820;6.274;2023-04-08T06:24:59;98210.03;;;4.02;100.00
70506;BME280;58032;49.820;6.274;2023-04-08T06:27:26;98211.19;;;4.22;100.00
70506;BME280;58032;49.820;6.274;2023-04-08T06:29:53;98209.13;;;4.48;100.00
70506;BME280;58032;49.820;6.274;2023-04-08T06:32:21;98203.44;;;4.77;100.00
70506;BME280;58032;49.820;6.274;2023-04-08T06:34:48;98208.25;;;4.73;100.00
70506;BME280;58032;49.820;6.274;2023-04-08T06:37:14;98214.59;;;4.81;100.00
70506;BME280;58032;49.820;6.274;2023-04-08T06:39:42;98205.03;;;4.78;100.00
70506;BME280;58032;49.820;6.274;2023-04-08T06:42:09;98212.94;;;4.90;100.00
70506;BME280;58032;49.820;6.274;2023-04-08T06:44:46;98202.19;;;4.93;100.00
70506;BME280;58032;49.820;6.274;2023-04-08T06:47:13;98201.78;;;4.98;100.00
70506;BME280;58032;49.820;6.274;2023-04-08T06:49:40;98211.34;;;4.97;100.00
70506;BME280;58032;49.820;6.274;2023-04-08T06:52:07;98216.09;;;5.00;100.00
70506;BME280;58032;49.820;6.274;2023-04-08T06:54:34;98216.91;;;5.04;100.00
70506;BME280;58032;49.820;6.274;2023-04-08T06:57:01;98225.50;;;5.35;100.00
70506;BME280;58032;49.820;6.274;2023-04-08T06:59:29;98218.47;;;5.68;100.00
70506;BME280;58032;49.820;6.274;2023-04-08T07:01:57;98223.25;;;5.68;100.00
70506;BME280;58032;49.820;6.274;2023-04-08T07:04:24;98220.03;;;5.73;100.00
70506;BME280;58032;49.820;6.274;2023-04-08T07:06:51;98219.72;;;5.64;100.00
70506;BME280;58032;49.820;6.274;2023-04-08T07:09:17;98222.72;;;5.88;100.00
70506;BME280;58032;49.820;6.274;2023-04-08T07:11:44;98221.06;;;5.94;100.00
70506;BME280;58032;49.820;6.274;2023-04-08T07:14:11;98225.03;;;6.00;100.00
70506;BME280;58032;49.820;6.274;2023-04-08T07:16:38;98230.63;;;6.42;100.00
70506;BME280;58032;49.820;6.274;2023-04-08T07:19:05;98235.94;;;6.29;100.00
70506;BME280;58032;49.820;6.274;2023-04-08T07:21:32;98232.38;;;5.79;100.00
70506;BME280;58032;49.820;6.274;2023-04-08T07:23:59;98236.81;;;6.22;100.00
70506;BME280;58032;49.820;6.274;2023-04-08T07:26:26;98233.38;;;6.45;100.00
70506;BME280;58032;49.820;6.274;2023-04-08T07:28:54;98233.03;;;6.43;100.00
70506;BME280;58032;49.820;6.274;2023-04-08T07:31:21;98231.34;;;6.11;100.00
70506;BME280;58032;49.820;6.274;2023-04-08T07:33:50;98236.06;;;6.56;100.00
70506;BME280;58032;49.820;6.274;2023-04-08T07:36:17;98241.84;;;6.76;100.00
70506;BME280;58032;49.820;6.274;2023-04-08T07:38:46;98237.56;;;7.30;100.00
70506;BME280;58032;49.820;6.274;2023-04-08T07:41:13;98229.44;;;7.39;100.00
70506;BME280;58032;49.820;6.274;2023-04-08T07:43:40;98234.03;;;7.26;100.00
70506;BME280;58032;49.820;6.274;2023-04-08T07:46:07;98236.09;;;7.49;100.00
70506;BME280;58032;49.820;6.274;2023-04-08T07:48:34;98238.28;;;7.38;100.00
70506;BME280;58032;49.820;6.274;2023-04-08T07:51:08;98225.84;;;7.90;100.00
70506;BME280;58032;49.820;6.274;2023-04-08T07:53:37;98235.94;;;7.60;100.00
70506;BME280;58032;49.820;6.274;2023-04-08T07:56:14;98225.19;;;7.82;100.00
70506;BME280;58032;49.820;6.274;2023-04-08T07:58:41;98240.34;;;7.61;100.00
70506;BME280;58032;49.820;6.274;2023-04-08T08:03:43;98239.16;;;7.31;100.00
70506;BME280;58032;49.820;6.274;2023-04-08T08:06:11;98236.59;;;6.82;100.00
70506;BME280;58032;49.820;6.274;2023-04-08T08:08:38;98237.72;;;8.49;100.00
70506;BME280;58032;49.820;6.274;2023-04-08T08:11:06;98241.72;;;8.92;100.00
70506;BME280;58032;49.820;6.274;2023-04-08T08:13:33;98237.84;;;9.22;100.00
70506;BME280;58032;49.820;6.274;2023-04-08T08:16:00;98229.16;;;10.19;100.00
70506;BME280;58032;49.820;6.274;2023-04-08T08:18:27;98227.16;;;9.54;100.00
70506;BME280;58032;49.820;6.274;2023-04-08T08:20:54;98234.94;;;8.69;100.00
70506;BME280;58032;49.820;6.274;2023-04-08T08:23:21;98240.00;;;8.54;100.00
70506;BME280;58032;49.820;6.274;2023-04-08T08:25:48;98234.47;;;8.50;100.00
70506;BME280;58032;49.820;6.274;2023-04-08T08:28:14;98234.88;;;8.73;100.00
70506;BME280;58032;49.820;6.274;2023-04-08T08:30:43;98243.97;;;8.33;100.00
70506;BME280;58032;49.820;6.274;2023-04-08T08:33:09;98244.78;;;8.57;100.00
70506;BME280;58032;49.820;6.274;2023-04-08T08:35:36;98249.31;;;8.27;100.00
70506;BME280;58032;49.820;6.274;2023-04-08T08:38:03;98252.53;;;7.74;100.00
70506;BME280;58032;49.820;6.274;2023-04-08T08:40:30;98254.44;;;7.54;100.00
70506;BME280;58032;49.820;6.274;2023-04-08T08:42:58;98252.69;;;7.64;100.00
70506;BME280;58032;49.820;6.274;2023-04-08T08:45:27;98249.72;;;7.51;100.00
70506;BME280;58032;49.820;6.274;2023-04-08T08:47:55;98254.81;;;7.56;100.00
70506;BME280;58032;49.820;6.274;2023-04-08T08:50:22;98266.13;;;7.49;100.00
70506;BME280;58032;49.820;6.274;2023-04-08T08:52:50;98268.25;;;7.96;100.00
70506;BME280;58032;49.820;6.274;2023-04-08T08:55:18;98255.00;;;8.20;100.00
70506;BME280;58032;49.820;6.274;2023-04-08T08:57:53;98262.69;;;8.39;100.00
70506;BME280;58032;49.820;6.274;2023-04-08T09:00:37;98260.41;;;8.58;100.00
70506;BME280;58032;49.820;6.274;2023-04-08T09:03:21;98263.19;;;8.34;100.00
70506;BME280;58032;49.820;6.274;2023-04-08T09:08:31;98271.13;;;8.16;100.00
70506;BME280;58032;49.820;6.274;2023-04-08T09:11:19;98268.75;;;8.14;100.00
70506;BME280;58032;49.820;6.274;2023-04-08T09:13:47;98284.06;;;8.10;100.00
70506;BME280;58032;49.820;6.274;2023-04-08T09:16:15;98272.81;;;9.01;100.00
70506;BME280;58032;49.820;6.274;2023-04-08T09:18:44;98277.88;;;8.42;100.00
70506;BME280;58032;49.820;6.274;2023-04-08T09:21:13;98273.81;;;8.47;100.00
70506;BME280;58032;49.820;6.274;2023-04-08T09:23:46;98271.75;;;8.51;100.00
70506;BME280;58032;49.820;6.274;2023-04-08T09:26:15;98269.59;;;9.02;100.00
70506;BME280;58032;49.820;6.274;2023-04-08T09:28:55;98268.25;;;9.64;100.00
70506;BME280;58032;49.820;6.274;2023-04-08T09:31:26;98271.00;;;8.70;100.00
70506;BME280;58032;49.820;6.274;2023-04-08T09:33:56;98274.44;;;9.39;100.00
70506;BME280;58032;49.820;6.274;2023-04-08T09:36:23;98268.84;;;8.58;100.00
70506;BME280;58032;49.820;6.274;2023-04-08T09:38:52;98277.06;;;8.69;100.00
70506;BME280;58032;49.820;6.274;2023-04-08T09:41:21;98281.75;;;8.96;100.00
70506;BME280;58032;49.820;6.274;2023-04-08T09:43:55;98272.50;;;9.35;100.00
70506;BME280;58032;49.820;6.274;2023-04-08T09:46:32;98272.69;;;9.81;100.00
70506;BME280;58032;49.820;6.274;2023-04-08T09:49:10;98267.13;;;9.61;100.00
70506;BME280;58032;49.820;6.274;2023-04-08T09:54:59;98268.06;;;10.08;100.00
70506;BME280;58032;49.820;6.274;2023-04-08T09:57:30;98260.78;;;10.73;100.00
70506;BME280;58032;49.820;6.274;2023-04-08T10:00:16;98268.06;;;8.98;100.00
70506;BME280;58032;49.820;6.274;2023-04-08T10:03:17;98277.69;;;8.77;100.00
70506;BME280;58032;49.820;6.274;2023-04-08T10:05:49;98269.34;;;9.33;100.00
70506;BME280;58032;49.820;6.274;2023-04-08T10:08:18;98266.84;;;9.19;100.00
70506;BME280;58032;49.820;6.274;2023-04-08T10:10:45;98271.25;;;9.00;100.00
70506;BME280;58032;49.820;6.274;2023-04-08T10:13:14;98266.91;;;9.52;100.00
70506;BME280;58032;49.820;6.274;2023-04-08T10:15:42;98266.44;;;9.74;100.00
70506;BME280;58032;49.820;6.274;2023-04-08T10:23:12;98261.34;;;9.85;100.00
70506;BME280;58032;49.820;6.274;2023-04-08T10:25:44;98253.72;;;10.81;100.00
70506;BME280;58032;49.820;6.274;2023-04-08T10:30:47;98259.81;;;11.09;100.00
70506;BME280;58032;49.820;6.274;2023-04-08T10:33:21;98257.84;;;10.47;100.00
70506;BME280;58032;49.820;6.274;2023-04-08T10:35:53;98250.41;;;10.99;100.00
70506;BME280;58032;49.820;6.274;2023-04-08T10:38:20;98255.50;;;10.45;100.00
70506;BME280;58032;49.820;6.274;2023-04-08T10:40:48;98255.00;;;9.64;100.00
70506;BME280;58032;49.820;6.274;2023-04-08T10:43:15;98253.75;;;9.49;100.00
70506;BME280;58032;49.820;6.274;2023-04-08T10:45:44;98251.19;;;10.41;100.00
70506;BME280;58032;49.820;6.274;2023-04-08T10:48:16;98248.38;;;11.00;100.00
70506;BME280;58032;49.820;6.274;2023-04-08T10:50:51;98246.44;;;10.97;100.00
70506;BME280;58032;49.820;6.274;2023-04-08T10:53:32;98245.84;;;9.60;100.00
70506;BME280;58032;49.820;6.274;2023-04-08T10:56:06;98253.47;;;9.43;100.00
70506;BME280;58032;49.820;6.274;2023-04-08T10:58:35;98250.75;;;9.40;100.00
70506;BME280;58032;49.820;6.274;2023-04-08T11:01:05;98250.44;;;9.71;100.00
70506;BME280;58032;49.820;6.274;2023-04-08T11:03:33;98248.47;;;10.37;100.00
70506;BME280;58032;49.820;6.274;2023-04-08T11:06:01;98246.19;;;11.33;100.00
70506;BME280;58032;49.820;6.274;2023-04-08T11:08:33;98235.66;;;12.02;100.00
70506;BME280;58032;49.820;6.274;2023-04-08T11:11:00;98218.34;;;12.61;100.00
70506;BME280;58032;49.820;6.274;2023-04-08T11:13:28;98220.06;;;12.45;100.00
70506;BME280;58032;49.820;6.274;2023-04-08T11:15:56;98227.78;;;12.67;100.00
70506;BME280;58032;49.820;6.274;2023-04-08T11:18:24;98225.16;;;11.64;100.00
70506;BME280;58032;49.820;6.274;2023-04-08T11:20:52;98208.97;;;12.03;100.00
70506;BME280;58032;49.820;6.274;2023-04-08T11:23:19;98218.94;;;11.69;100.00
70506;BME280;58032;49.820;6.274;2023-04-08T11:25:48;98211.03;;;11.51;100.00
70506;BME280;58032;49.820;6.274;2023-04-08T11:28:16;98214.16;;;11.27;100.00
70506;BME280;58032;49.820;6.274;2023-04-08T11:30:43;98224.28;;;11.12;100.00
70506;BME280;58032;49.820;6.274;2023-04-08T11:33:12;98213.84;;;12.15;100.00
70506;BME280;58032;49.820;6.274;2023-04-08T11:35:40;98198.56;;;12.61;100.00
70506;BME280;58032;49.820;6.274;2023-04-08T11:38:08;98214.66;;;11.64;100.00
70506;BME280;58032;49.820;6.274;2023-04-08T11:40:35;98215.91;;;10.95;100.00
70506;BME280;58032;49.820;6.274;2023-04-08T11:43:10;98216.84;;;10.29;100.00
70506;BME280;58032;49.820;6.274;2023-04-08T11:45:38;98222.84;;;10.15;100.00
70506;BME280;58032;49.820;6.274;2023-04-08T11:48:13;98213.94;;;10.79;100.00
70506;BME280;58032;49.820;6.274;2023-04-08T11:50:44;98214.53;;;11.29;100.00
70506;BME280;58032;49.820;6.274;2023-04-08T11:53:20;98201.84;;;12.11;100.00
70506;BME280;58032;49.820;6.274;2023-04-08T11:55:50;98211.25;;;11.44;100.00
70506;BME280;58032;49.820;6.274;2023-04-08T11:58:17;98211.22;;;11.18;100.00
70506;BME280;58032;49.820;6.274;2023-04-08T12:00:44;98206.63;;;11.50;100.00
70506;BME280;58032;49.820;6.274;2023-04-08T12:03:11;98205.72;;;12.17;100.00
70506;BME280;58032;49.820;6.274;2023-04-08T12:05:39;98199.41;;;12.93;100.00
70506;BME280;58032;49.820;6.274;2023-04-08T12:08:06;98190.41;;;12.63;100.00
70506;BME280;58032;49.820;6.274;2023-04-08T12:10:33;98201.09;;;11.85;100.00
70506;BME280;58032;49.820;6.274;2023-04-08T12:13:00;98187.25;;;12.61;100.00
70506;BME280;58032;49.820;6.274;2023-04-08T12:15:27;98188.41;;;12.50;100.00
70506;BME280;58032;49.820;6.274;2023-04-08T12:17:54;98192.38;;;12.05;100.00
70506;BME280;58032;49.820;6.274;2023-04-08T12:20:21;98200.66;;;11.48;100.00
70506;BME280;58032;49.820;6.274;2023-04-08T12:22:48;98204.53;;;10.99;100.00
70506;BME280;58032;49.820;6.274;2023-04-08T12:25:15;98191.06;;;11.45;100.00
70506;BME280;58032;49.820;6.274;2023-04-08T12:27:42;98204.78;;;11.30;100.00
70506;BME280;58032;49.820;6.274;2023-04-08T12:30:09;98196.78;;;11.29;100.00
70506;BME280;58032;49.820;6.274;2023-04-08T12:32:36;98205.34;;;10.99;100.00
70506;BME280;58032;49.820;6.274;2023-04-08T12:35:03;98200.41;;;11.42;100.00
70506;BME280;58032;49.820;6.274;2023-04-08T12:37:30;98195.47;;;11.59;100.00
70506;BME280;58032;49.820;6.274;2023-04-08T12:39:58;98196.03;;;11.41;100.00
70506;BME280;58032;49.820;6.274;2023-04-08T12:42:25;98206.78;;;11.04;100.00
70506;BME280;58032;49.820;6.274;2023-04-08T12:44:53;98205.22;;;11.03;100.00
70506;BME280;58032;49.820;6.274;2023-04-08T12:47:20;98194.63;;;11.07;100.00
70506;BME280;58032;49.820;6.274;2023-04-08T12:49:48;98191.19;;;11.54;100.00
70506;BME280;58032;49.820;6.274;2023-04-08T12:52:15;98195.47;;;11.46;100.00
70506;BME280;58032;49.820;6.274;2023-04-08T12:54:43;98191.63;;;11.66;100.00
70506;BME280;58032;49.820;6.274;2023-04-08T12:57:10;98186.97;;;12.46;100.00
70506;BME280;58032;49.820;6.274;2023-04-08T12:59:37;98188.06;;;12.83;100.00
70506;BME280;58032;49.820;6.274;2023-04-08T13:02:06;98178.06;;;12.47;100.00
70506;BME280;58032;49.820;6.274;2023-04-08T13:04:33;98181.59;;;13.05;100.00
70506;BME280;58032;49.820;6.274;2023-04-08T13:07:00;98184.53;;;13.24;100.00
70506;BME280;58032;49.820;6.274;2023-04-08T13:09:27;98163.59;;;12.90;100.00
70506;BME280;58032;49.820;6.274;2023-04-08T13:11:56;98177.78;;;12.55;100.00
70506;BME280;58032;49.820;6.274;2023-04-08T13:14:24;98184.34;;;12.96;100.00
70506;BME280;58032;49.820;6.274;2023-04-08T13:16:50;98176.81;;;12.71;100.00
70506;BME280;58032;49.820;6.274;2023-04-08T13:19:18;98177.47;;;12.17;100.00
70506;BME280;58032;49.820;6.274;2023-04-08T13:21:45;98177.88;;;12.64;100.00
70506;BME280;58032;49.820;6.274;2023-04-08T13:24:12;98177.75;;;12.32;100.00
70506;BME280;58032;49.820;6.274;2023-04-08T13:26:38;98179.56;;;11.78;100.00